sensor_id;sensor_type;location;lat;lon;timestamp;temperature;humidity
3466;DHT22;1747;48.884;9.160;2023-03-14T00:02:22;11.10;99.90
3466;DHT22;1747;48.884;9.160;2023-03-14T00:04:54;10.90;99.90
3466;DHT22;1747;48.884;9.160;2023-03-14T00:07:21;11.00;99.90
3466;DHT22;1747;48.884;9.160;2023-03-14T00:09:50;10.90;99.90
3466;DHT22;1747;48.884;9.160;2023-03-14T00:12:16;10.90;99.90
3466;DHT22;1747;48.884;9.160;2023-03-14T00:14:43;10.90;99.90
3466;DHT22;1747;48.884;9.160;2023-03-14T00:17:10;10.90;99.90
3466;DHT22;1747;48.884;9.160;2023-03-14T00:19:39;10.90;99.90
3466;DHT22;1747;48.884;9.160;2023-03-14T00:22:07;10.80;99.90
3466;DHT22;1747;48.884;9.160;2023-03-14T00:24:34;10.70;99.90
3466;DHT22;1747;48.884;9.160;2023-03-14T00:27:01;10.70;99.90
3466;DHT22;1747;48.884;9.160;2023-03-14T00:29:27;10.60;99.90
3466;DHT22;1747;48.884;9.160;2023-03-14T00:31:54;10.70;99.90
3466;DHT22;1747;48.884;9.160;2023-03-14T00:34:21;10.60;99.90
3466;DHT22;1747;48.884;9.160;2023-03-14T00:36:48;10.60;99.90
3466;DHT22;1747;48.884;9.160;2023-03-14T00:39:16;10.60;99.90
3466;DHT22;1747;48.884;9.160;2023-03-14T00:41:43;10.70;99.90
3466;DHT22;1747;48.884;9.160;2023-03-14T00:44:09;10.70;99.90
3466;DHT22;1747;48.884;9.160;2023-03-14T00:46:36;10.90;99.90
3466;DHT22;1747;48.884;9.160;2023-03-14T00:49:03;10.70;99.90
3466;DHT22;1747;48.884;9.160;2023-03-14T00:51:30;10.80;99.90
3466;DHT22;1747;48.884;9.160;2023-03-14T00:53:57;10.70;99.90
3466;DHT22;1747;48.884;9.160;2023-03-14T00:56:25;10.80;99.90
3466;DHT22;1747;48.884;9.160;2023-03-14T00:58:53;10.80;99.90
3466;DHT22;1747;48.884;9.160;2023-03-14T01:01:21;10.90;99.90
3466;DHT22;1747;48.884;9.160;2023-03-14T01:03:51;10.90;99.90
3466;DHT22;1747;48.884;9.160;2023-03-14T01:06:21;11.00;99.90
3466;DHT22;1747;48.884;9.160;2023-03-14T01:08:48;11.00;99.90
3466;DHT22;1747;48.884;9.160;2023-03-14T01:11:17;11.10;99.90
3466;DHT22;1747;48.884;9.160;2023-03-14T01:13:46;11.20;99.90
3466;DHT22;1747;48.884;9.160;2023-03-14T01:16:17;11.10;99.90
3466;DHT22;1747;48.884;9.160;2023-03-14T01:18:44;11.20;99.90
3466;DHT22;1747;48.884;9.160;2023-03-14T01:21:14;11.30;99.90
3466;DHT22;1747;48.884;9.160;2023-03-14T01:23:42;11.30;99.90
3466;DHT22;1747;48.884;9.160;2023-03-14T01:26:10;11.30;99.90
3466;DHT22;1747;48.884;9.160;2023-03-14T01:28:37;11.50;99.90
3466;DHT22;1747;48.884;9.160;2023-03-14T01:31:07;11.40;99.90
3466;DHT22;1747;48.884;9.160;2023-03-14T01:33:34;11.20;99.90
3466;DHT22;1747;48.884;9.160;2023-03-14T01:36:01;11.30;99.90
3466;DHT22;1747;48.884;9.160;2023-03-14T01:38:28;11.30;99.90
3466;DHT22;1747;48.884;9.160;2023-03-14T01:40:55;11.40;99.90
3466;DHT22;1747;48.884;9.160;2023-03-14T01:43:22;11.70;99.90
3466;DHT22;1747;48.884;9.160;2023-03-14T01:48:57;11.60;99.90
3466;DHT22;1747;48.884;9.160;2023-03-14T01:51:30;11.60;99.90
3466;DHT22;1747;48.884;9.160;2023-03-14T01:54:06;11.50;99.90
3466;DHT22;1747;48.884;9.160;2023-03-14T01:56:35;11.60;99.90
3466;DHT22;1747;48.884;9.160;2023-03-14T01:59:04;11.70;99.90
3466;DHT22;1747;48.884;9.160;2023-03-14T02:01:33;11.70;99.90
3466;DHT22;1747;48.884;9.160;2023-03-14T02:04:04;11.60;99.90
3466;DHT22;1747;48.884;9.160;2023-03-14T02:06:36;11.50;99.90
3466;DHT22;1747;48.884;9.160;2023-03-14T02:09:04;11.60;99.90
3466;DHT22;1747;48.884;9.160;2023-03-14T02:11:31;11.50;99.90
3466;DHT22;1747;48.884;9.160;2023-03-14T02:13:59;11.40;99.90
3466;DHT22;1747;48.884;9.160;2023-03-14T02:16:26;11.40;99.90
3466;DHT22;1747;48.884;9.160;2023-03-14T02:18:52;11.40;99.90
3466;DHT22;1747;48.884;9.160;2023-03-14T02:21:25;11.50;99.90
3466;DHT22;1747;48.884;9.160;2023-03-14T02:24:02;11.60;99.90
3466;DHT22;1747;48.884;9.160;2023-03-14T02:26:36;11.60;99.90
3466;DHT22;1747;48.884;9.160;2023-03-14T02:29:05;11.60;99.90
3466;DHT22;1747;48.884;9.160;2023-03-14T02:31:33;11.50;99.90
3466;DHT22;1747;48.884;9.160;2023-03-14T02:34:00;11.60;99.90
3466;DHT22;1747;48.884;9.160;2023-03-14T02:36:27;11.60;99.90
3466;DHT22;1747;48.884;9.160;2023-03-14T02:39:00;11.60;99.90
3466;DHT22;1747;48.884;9.160;2023-03-14T02:41:31;11.60;99.90
3466;DHT22;1747;48.884;9.160;2023-03-14T02:43:58;11.60;99.90
3466;DHT22;1747;48.884;9.160;2023-03-14T02:46:26;11.60;99.90
3466;DHT22;1747;48.884;9.160;2023-03-14T02:48:55;11.60;99.90
3466;DHT22;1747;48.884;9.160;2023-03-14T02:51:26;11.40;99.90
3466;DHT22;1747;48.884;9.160;2023-03-14T02:53:53;11.40;99.90
3466;DHT22;1747;48.884;9.160;2023-03-14T02:56:20;11.50;99.90
3466;DHT22;1747;48.884;9.160;2023-03-14T02:58:47;11.40;99.90
3466;DHT22;1747;48.884;9.160;2023-03-14T03:01:13;11.40;99.90
3466;DHT22;1747;48.884;9.160;2023-03-14T03:03:41;11.50;99.90
3466;DHT22;1747;48.884;9.160;2023-03-14T03:06:08;11.50;99.90
3466;DHT22;1747;48.884;9.160;2023-03-14T03:08:35;11.50;99.90
3466;DHT22;1747;48.884;9.160;2023-03-14T03:11:03;11.50;99.90
3466;DHT22;1747;48.884;9.160;2023-03-14T03:13:30;11.50;99.90
3466;DHT22;1747;48.884;9.160;2023-03-14T03:15:56;11.50;99.90
3466;DHT22;1747;48.884;9.160;2023-03-14T03:18:23;11.50;99.90
3466;DHT22;1747;48.884;9.160;2023-03-14T03:20:51;11.50;99.90
3466;DHT22;1747;48.884;9.160;2023-03-14T03:23:18;11.50;99.90
3466;DHT22;1747;48.884;9.160;2023-03-14T03:25:48;11.50;99.90
3466;DHT22;1747;48.884;9.160;2023-03-14T03:28:15;11.40;99.90
3466;DHT22;1747;48.884;9.160;2023-03-14T03:30:43;11.50;99.90
3466;DHT22;1747;48.884;9.160;2023-03-14T03:33:10;11.40;99.90
3466;DHT22;1747;48.884;9.160;2023-03-14T03:35:42;11.40;99.90
3466;DHT22;1747;48.884;9.160;2023-03-14T03:38:11;11.40;99.90
3466;DHT22;1747;48.884;9.160;2023-03-14T03:40:38;11.40;99.90
3466;DHT22;1747;48.884;9.160;2023-03-14T03:43:05;11.30;99.90
3466;DHT22;1747;48.884;9.160;2023-03-14T03:45:32;11.30;99.90
3466;DHT22;1747;48.884;9.160;2023-03-14T03:47:58;11.30;99.90
3466;DHT22;1747;48.884;9.160;2023-03-14T03:50:25;11.30;99.90
3466;DHT22;1747;48.884;9.160;2023-03-14T03:52:52;11.40;99.90
3466;DHT22;1747;48.884;9.160;2023-03-14T03:55:20;11.40;99.90
3466;DHT22;1747;48.884;9.160;2023-03-14T03:57:47;11.40;99.90
3466;DHT22;1747;48.884;9.160;2023-03-14T04:00:14;11.40;99.90
3466;DHT22;1747;48.884;9.160;2023-03-14T04:02:41;11.30;99.90
3466;DHT22;1747;48.884;9.160;2023-03-14T04:05:08;11.40;99.90
3466;DHT22;1747;48.884;9.160;2023-03-14T04:07:35;11.30;99.90
3466;DHT22;1747;48.884;9.160;2023-03-14T04:10:02;11.20;99.90
3466;DHT22;1747;48.884;9.160;2023-03-14T04:12:30;11.20;99.90
3466;DHT22;1747;48.884;9.160;2023-03-14T04:14:57;11.20;99.90
3466;DHT22;1747;48.884;9.160;2023-03-14T04:17:24;11.10;99.90
3466;DHT22;1747;48.884;9.160;2023-03-14T04:19:51;11.00;99.90
3466;DHT22;1747;48.884;9.160;2023-03-14T04:22:19;11.00;99.90
3466;DHT22;1747;48.884;9.160;2023-03-14T04:24:46;11.00;99.90
3466;DHT22;1747;48.884;9.160;2023-03-14T04:27:12;11.00;99.90
3466;DHT22;1747;48.884;9.160;2023-03-14T04:29:42;11.00;99.90
3466;DHT22;1747;48.884;9.160;2023-03-14T04:32:09;10.90;99.90
3466;DHT22;1747;48.884;9.160;2023-03-14T04:34:35;10.80;99.90
3466;DHT22;1747;48.884;9.160;2023-03-14T04:37:03;10.80;99.90
3466;DHT22;1747;48.884;9.160;2023-03-14T04:39:29;10.90;99.90
3466;DHT22;1747;48.884;9.160;2023-03-14T04:41:56;10.80;99.90
3466;DHT22;1747;48.884;9.160;2023-03-14T04:44:23;10.80;99.90
3466;DHT22;1747;48.884;9.160;2023-03-14T04:46:52;10.70;99.90
3466;DHT22;1747;48.884;9.160;2023-03-14T04:49:18;10.70;99.90
3466;DHT22;1747;48.884;9.160;2023-03-14T04:51:45;10.80;99.90
3466;DHT22;1747;48.884;9.160;2023-03-14T04:54:12;10.80;99.90
3466;DHT22;1747;48.884;9.160;2023-03-14T04:56:39;10.70;99.90
3466;DHT22;1747;48.884;9.160;2023-03-14T04:59:06;10.60;99.90
3466;DHT22;1747;48.884;9.160;2023-03-14T05:01:33;10.60;99.90
3466;DHT22;1747;48.884;9.160;2023-03-14T05:04:02;10.60;99.90
3466;DHT22;1747;48.884;9.160;2023-03-14T05:06:28;10.50;99.90
3466;DHT22;1747;48.884;9.160;2023-03-14T05:08:55;10.50;99.90
3466;DHT22;1747;48.884;9.160;2023-03-14T05:11:22;10.50;99.90
3466;DHT22;1747;48.884;9.160;2023-03-14T05:13:49;10.50;99.90
3466;DHT22;1747;48.884;9.160;2023-03-14T05:16:16;10.50;99.90
3466;DHT22;1747;48.884;9.160;2023-03-14T05:18:42;10.30;99.90
3466;DHT22;1747;48.884;9.160;2023-03-14T05:21:11;10.30;99.90
3466;DHT22;1747;48.884;9.160;2023-03-14T05:23:37;10.40;99.90
3466;DHT22;1747;48.884;9.160;2023-03-14T05:26:05;10.40;99.90
3466;DHT22;1747;48.884;9.160;2023-03-14T05:28:32;10.30;99.90
3466;DHT22;1747;48.884;9.160;2023-03-14T05:30:59;10.30;99.90
3466;DHT22;1747;48.884;9.160;2023-03-14T05:33:25;10.10;99.90
3466;DHT22;1747;48.884;9.160;2023-03-14T05:35:52;10.10;99.90
3466;DHT22;1747;48.884;9.160;2023-03-14T05:38:20;10.00;99.90
3466;DHT22;1747;48.884;9.160;2023-03-14T05:40:47;9.90;99.90
3466;DHT22;1747;48.884;9.160;2023-03-14T05:43:14;10.00;99.90
3466;DHT22;1747;48.884;9.160;2023-03-14T05:45:41;10.10;99.90
3466;DHT22;1747;48.884;9.160;2023-03-14T05:48:09;10.10;99.90
3466;DHT22;1747;48.884;9.160;2023-03-14T05:50:36;10.20;99.90
3466;DHT22;1747;48.884;9.160;2023-03-14T05:53:02;10.30;99.90
3466;DHT22;1747;48.884;9.160;2023-03-14T05:55:31;10.50;99.90
3466;DHT22;1747;48.884;9.160;2023-03-14T05:57:58;10.70;99.90
3466;DHT22;1747;48.884;9.160;2023-03-14T06:00:25;10.80;99.90
3466;DHT22;1747;48.884;9.160;2023-03-14T06:02:52;10.90;99.90
3466;DHT22;1747;48.884;9.160;2023-03-14T06:05:19;11.00;99.90
3466;DHT22;1747;48.884;9.160;2023-03-14T06:07:46;11.00;99.90
3466;DHT22;1747;48.884;9.160;2023-03-14T06:10:13;11.10;99.90
3466;DHT22;1747;48.884;9.160;2023-03-14T06:12:41;10.90;99.90
3466;DHT22;1747;48.884;9.160;2023-03-14T06:15:09;11.00;99.90
3466;DHT22;1747;48.884;9.160;2023-03-14T06:17:36;11.00;99.90
3466;DHT22;1747;48.884;9.160;2023-03-14T06:20:07;11.10;99.90
3466;DHT22;1747;48.884;9.160;2023-03-14T06:22:34;11.00;99.90
3466;DHT22;1747;48.884;9.160;2023-03-14T06:25:03;11.10;99.90
3466;DHT22;1747;48.884;9.160;2023-03-14T06:27:30;10.90;99.90
3466;DHT22;1747;48.884;9.160;2023-03-14T06:29:58;10.90;99.90
3466;DHT22;1747;48.884;9.160;2023-03-14T06:32:25;11.00;99.90
3466;DHT22;1747;48.884;9.160;2023-03-14T06:34:52;11.10;99.90
3466;DHT22;1747;48.884;9.160;2023-03-14T06:37:20;11.10;99.90
3466;DHT22;1747;48.884;9.160;2023-03-14T06:39:53;11.10;99.90
3466;DHT22;1747;48.884;9.160;2023-03-14T06:42:20;11.20;99.90
3466;DHT22;1747;48.884;9.160;2023-03-14T06:44:47;11.20;99.90
3466;DHT22;1747;48.884;9.160;2023-03-14T06:47:16;11.10;99.90
3466;DHT22;1747;48.884;9.160;2023-03-14T06:49:43;11.20;99.90
3466;DHT22;1747;48.884;9.160;2023-03-14T06:52:10;11.20;99.90
3466;DHT22;1747;48.884;9.160;2023-03-14T06:54:37;11.20;99.90
3466;DHT22;1747;48.884;9.160;2023-03-14T06:57:04;11.30;99.90
3466;DHT22;1747;48.884;9.160;2023-03-14T06:59:31;11.30;99.90
3466;DHT22;1747;48.884;9.160;2023-03-14T07:01:58;11.40;99.90
3466;DHT22;1747;48.884;9.160;2023-03-14T07:04:26;11.40;99.90
3466;DHT22;1747;48.884;9.160;2023-03-14T07:06:53;11.40;99.90
3466;DHT22;1747;48.884;9.160;2023-03-14T07:09:20;11.40;99.90
3466;DHT22;1747;48.884;9.160;2023-03-14T07:11:46;11.50;99.90
3466;DHT22;1747;48.884;9.160;2023-03-14T07:14:13;11.50;99.90
3466;DHT22;1747;48.884;9.160;2023-03-14T07:16:40;11.60;99.90
3466;DHT22;1747;48.884;9.160;2023-03-14T07:19:07;11.70;99.90
3466;DHT22;1747;48.884;9.160;2023-03-14T07:21:35;11.70;99.90
3466;DHT22;1747;48.884;9.160;2023-03-14T07:24:02;11.80;99.90
3466;DHT22;1747;48.884;9.160;2023-03-14T07:26:29;11.80;99.90
3466;DHT22;1747;48.884;9.160;2023-03-14T07:28:55;11.90;99.90
3466;DHT22;1747;48.884;9.160;2023-03-14T07:31:23;12.00;99.90
3466;DHT22;1747;48.884;9.160;2023-03-14T07:33:49;12.10;99.90
3466;DHT22;1747;48.884;9.160;2023-03-14T07:36:16;12.10;99.90
3466;DHT22;1747;48.884;9.160;2023-03-14T07:38:44;12.30;99.90
3466;DHT22;1747;48.884;9.160;2023-03-14T07:41:11;12.40;99.90
3466;DHT22;1747;48.884;9.160;2023-03-14T07:43:38;12.50;99.90
3466;DHT22;1747;48.884;9.160;2023-03-14T07:46:06;12.60;99.90
3466;DHT22;1747;48.884;9.160;2023-03-14T07:48:33;12.60;99.90
3466;DHT22;1747;48.884;9.160;2023-03-14T07:51:00;12.60;99.90
3466;DHT22;1747;48.884;9.160;2023-03-14T07:53:27;12.70;99.90
3466;DHT22;1747;48.884;9.160;2023-03-14T07:55:55;12.70;99.90
3466;DHT22;1747;48.884;9.160;2023-03-14T07:58:22;12.80;99.90
3466;DHT22;1747;48.884;9.160;2023-03-14T08:00:49;12.80;99.90
3466;DHT22;1747;48.884;9.160;2023-03-14T08:03:16;12.80;99.90
3466;DHT22;1747;48.884;9.160;2023-03-14T08:05:46;12.80;99.90
3466;DHT22;1747;48.884;9.160;2023-03-14T08:08:13;13.00;99.90
3466;DHT22;1747;48.884;9.160;2023-03-14T08:10:40;13.00;99.90
3466;DHT22;1747;48.884;9.160;2023-03-14T08:13:09;13.10;99.90
3466;DHT22;1747;48.884;9.160;2023-03-14T08:15:36;13.20;99.90
3466;DHT22;1747;48.884;9.160;2023-03-14T08:18:04;13.30;99.90
3466;DHT22;1747;48.884;9.160;2023-03-14T08:20:31;13.50;99.90
3466;DHT22;1747;48.884;9.160;2023-03-14T08:22:58;13.60;99.90
3466;DHT22;1747;48.884;9.160;2023-03-14T08:25:25;13.70;99.90
3466;DHT22;1747;48.884;9.160;2023-03-14T08:27:53;13.60;99.90
3466;DHT22;1747;48.884;9.160;2023-03-14T08:30:22;13.60;99.90
3466;DHT22;1747;48.884;9.160;2023-03-14T08:32:48;13.70;99.90
3466;DHT22;1747;48.884;9.160;2023-03-14T08:35:15;13.50;99.90
3466;DHT22;1747;48.884;9.160;2023-03-14T08:37:42;13.40;99.90
3466;DHT22;1747;48.884;9.160;2023-03-14T08:40:10;13.40;99.90
3466;DHT22;1747;48.884;9.160;2023-03-14T08:42:37;13.50;99.90
3466;DHT22;1747;48.884;9.160;2023-03-14T08:45:06;13.70;99.90
3466;DHT22;1747;48.884;9.160;2023-03-14T08:47:35;13.70;99.90
3466;DHT22;1747;48.884;9.160;2023-03-14T08:50:02;13.80;99.90
3466;DHT22;1747;48.884;9.160;2023-03-14T08:52:29;13.80;99.90
3466;DHT22;1747;48.884;9.160;2023-03-14T08:54:57;13.80;99.90
3466;DHT22;1747;48.884;9.160;2023-03-14T08:57:24;13.70;99.90
3466;DHT22;1747;48.884;9.160;2023-03-14T08:59:52;13.70;99.90
3466;DHT22;1747;48.884;9.160;2023-03-14T09:02:19;13.70;99.90
3466;DHT22;1747;48.884;9.160;2023-03-14T09:04:47;13.60;99.90
3466;DHT22;1747;48.884;9.160;2023-03-14T09:07:16;13.50;99.90
3466;DHT22;1747;48.884;9.160;2023-03-14T09:09:42;13.60;99.90
3466;DHT22;1747;48.884;9.160;2023-03-14T09:12:09;13.70;99.90
3466;DHT22;1747;48.884;9.160;2023-03-14T09:14:36;13.70;99.90
3466;DHT22;1747;48.884;9.160;2023-03-14T09:17:04;13.90;99.90
3466;DHT22;1747;48.884;9.160;2023-03-14T09:19:31;13.90;99.90
3466;DHT22;1747;48.884;9.160;2023-03-14T09:21:59;13.90;99.90
3466;DHT22;1747;48.884;9.160;2023-03-14T09:24:26;13.90;99.90
3466;DHT22;1747;48.884;9.160;2023-03-14T09:26:53;13.80;99.90
3466;DHT22;1747;48.884;9.160;2023-03-14T09:29:20;13.70;99.90
3466;DHT22;1747;48.884;9.160;2023-03-14T09:31:47;13.70;99.90
3466;DHT22;1747;48.884;9.160;2023-03-14T09:34:14;13.50;99.90
3466;DHT22;1747;48.884;9.160;2023-03-14T09:36:41;13.40;99.90
3466;DHT22;1747;48.884;9.160;2023-03-14T09:39:11;13.20;99.90
3466;DHT22;1747;48.884;9.160;2023-03-14T09:41:39;13.00;99.90
3466;DHT22;1747;48.884;9.160;2023-03-14T09:44:11;12.90;99.90
3466;DHT22;1747;48.884;9.160;2023-03-14T09:46:42;12.80;99.90
3466;DHT22;1747;48.884;9.160;2023-03-14T09:49:12;12.90;99.90
3466;DHT22;1747;48.884;9.160;2023-03-14T09:51:44;12.80;99.90
3466;DHT22;1747;48.884;9.160;2023-03-14T09:54:24;13.00;99.90
3466;DHT22;1747;48.884;9.160;2023-03-14T09:56:54;13.10;99.90
3466;DHT22;1747;48.884;9.160;2023-03-14T09:59:20;13.30;99.90
3466;DHT22;1747;48.884;9.160;2023-03-14T10:01:47;13.50;99.90
3466;DHT22;1747;48.884;9.160;2023-03-14T10:04:16;13.60;99.90
3466;DHT22;1747;48.884;9.160;2023-03-14T10:06:43;13.60;99.90
3466;DHT22;1747;48.884;9.160;2023-03-14T10:09:15;13.60;99.90
3466;DHT22;1747;48.884;9.160;2023-03-14T10:11:43;13.60;99.90
3466;DHT22;1747;48.884;9.160;2023-03-14T10:14:11;13.60;99.90
3466;DHT22;1747;48.884;9.160;2023-03-14T10:16:41;13.60;99.90
3466;DHT22;1747;48.884;9.160;2023-03-14T10:19:11;13.50;99.90
3466;DHT22;1747;48.884;9.160;2023-03-14T10:21:40;13.60;99.90
3466;DHT22;1747;48.884;9.160;2023-03-14T10:24:20;13.60;99.90
3466;DHT22;1747;48.884;9.160;2023-03-14T10:26:52;13.80;99.90
3466;DHT22;1747;48.884;9.160;2023-03-14T10:29:20;13.90;99.90
3466;DHT22;1747;48.884;9.160;2023-03-14T10:31:51;13.90;99.90
3466;DHT22;1747;48.884;9.160;2023-03-14T10:34:23;14.10;99.90
3466;DHT22;1747;48.884;9.160;2023-03-14T10:36:55;14.20;99.90
3466;DHT22;1747;48.884;9.160;2023-03-14T10:39:44;14.30;99.90
3466;DHT22;1747;48.884;9.160;2023-03-14T10:42:16;14.30;99.90
3466;DHT22;1747;48.884;9.160;2023-03-14T10:44:46;14.30;99.90
3466;DHT22;1747;48.884;9.160;2023-03-14T10:47:18;14.30;99.90
3466;DHT22;1747;48.884;9.160;2023-03-14T10:49:46;14.30;99.90
3466;DHT22;1747;48.884;9.160;2023-03-14T10:52:17;14.40;99.90
3466;DHT22;1747;48.884;9.160;2023-03-14T10:54:48;14.50;99.90
3466;DHT22;1747;48.884;9.160;2023-03-14T10:57:15;14.50;99.90
3466;DHT22;1747;48.884;9.160;2023-03-14T10:59:43;14.40;99.90
3466;DHT22;1747;48.884;9.160;2023-03-14T11:02:31;14.40;99.90
3466;DHT22;1747;48.884;9.160;2023-03-14T11:05:07;14.40;99.90
3466;DHT22;1747;48.884;9.160;2023-03-14T11:07:39;14.30;99.90
3466;DHT22;1747;48.884;9.160;2023-03-14T11:10:14;14.30;99.90
3466;DHT22;1747;48.884;9.160;2023-03-14T11:12:50;14.20;99.90
3466;DHT22;1747;48.884;9.160;2023-03-14T11:15:25;14.00;99.90
3466;DHT22;1747;48.884;9.160;2023-03-14T11:20:46;13.70;99.90
3466;DHT22;1747;48.884;9.160;2023-03-14T11:23:18;13.60;99.90
3466;DHT22;1747;48.884;9.160;2023-03-14T11:25:54;13.50;99.90
3466;DHT22;1747;48.884;9.160;2023-03-14T11:28:28;13.40;99.90
3466;DHT22;1747;48.884;9.160;2023-03-14T11:31:04;13.10;99.90
3466;DHT22;1747;48.884;9.160;2023-03-14T11:33:37;12.90;99.90
3466;DHT22;1747;48.884;9.160;2023-03-14T11:36:07;12.80;99.90
3466;DHT22;1747;48.884;9.160;2023-03-14T11:38:38;12.70;99.90
3466;DHT22;1747;48.884;9.160;2023-03-14T11:41:10;12.70;99.90
3466;DHT22;1747;48.884;9.160;2023-03-14T11:43:40;12.60;99.90
3466;DHT22;1747;48.884;9.160;2023-03-14T11:46:11;12.50;99.90
3466;DHT22;1747;48.884;9.160;2023-03-14T11:48:44;12.60;99.90
3466;DHT22;1747;48.884;9.160;2023-03-14T11:51:17;12.60;99.90
3466;DHT22;1747;48.884;9.160;2023-03-14T11:53:54;12.70;99.90
3466;DHT22;1747;48.884;9.160;2023-03-14T11:56:29;12.70;99.90
3466;DHT22;1747;48.884;9.160;2023-03-14T11:59:01;12.60;99.90
3466;DHT22;1747;48.884;9.160;2023-03-14T12:01:40;12.60;99.90
3466;DHT22;1747;48.884;9.160;2023-03-14T12:04:15;12.50;99.90
3466;DHT22;1747;48.884;9.160;2023-03-14T12:06:48;12.50;99.90
3466;DHT22;1747;48.884;9.160;2023-03-14T12:09:16;12.50;99.90
3466;DHT22;1747;48.884;9.160;2023-03-14T12:11:48;12.50;99.90
3466;DHT22;1747;48.884;9.160;2023-03-14T12:14:21;12.50;99.90
3466;DHT22;1747;48.884;9.160;2023-03-14T12:16:49;12.60;99.90
3466;DHT22;1747;48.884;9.160;2023-03-14T12:19:36;12.60;99.90
3466;DHT22;1747;48.884;9.160;2023-03-14T12:22:24;12.60;99.90
3466;DHT22;1747;48.884;9.160;2023-03-14T12:24:59;12.70;99.90
3466;DHT22;1747;48.884;9.160;2023-03-14T12:30:35;12.60;99.90
3466;DHT22;1747;48.884;9.160;2023-03-14T12:33:29;12.20;99.90
3466;DHT22;1747;48.884;9.160;2023-03-14T12:36:01;12.00;99.90
3466;DHT22;1747;48.884;9.160;2023-03-14T12:38:38;11.80;99.90
3466;DHT22;1747;48.884;9.160;2023-03-14T12:41:15;11.60;99.90
3466;DHT22;1747;48.884;9.160;2023-03-14T12:43:43;11.30;99.90
3466;DHT22;1747;48.884;9.160;2023-03-14T12:46:25;10.90;99.90
3466;DHT22;1747;48.884;9.160;2023-03-14T12:49:03;10.60;99.90
3466;DHT22;1747;48.884;9.160;2023-03-14T12:51:35;10.50;99.90
3466;DHT22;1747;48.884;9.160;2023-03-14T12:54:22;10.40;99.90
3466;DHT22;1747;48.884;9.160;2023-03-14T12:57:06;10.50;99.90
3466;DHT22;1747;48.884;9.160;2023-03-14T12:59:37;11.10;99.90
3466;DHT22;1747;48.884;9.160;2023-03-14T13:02:24;11.90;99.90
3466;DHT22;1747;48.884;9.160;2023-03-14T13:04:59;12.50;99.90
3466;DHT22;1747;48.884;9.160;2023-03-14T13:10:22;13.40;99.90
3466;DHT22;1747;48.884;9.160;2023-03-14T13:12:51;13.30;99.90
3466;DHT22;1747;48.884;9.160;2023-03-14T13:15:24;13.10;99.90
3466;DHT22;1747;48.884;9.160;2023-03-14T13:17:56;12.90;99.90
3466;DHT22;1747;48.884;9.160;2023-03-14T13:20:30;12.90;99.90
3466;DHT22;1747;48.884;9.160;2023-03-14T13:22:58;13.10;99.90
3466;DHT22;1747;48.884;9.160;2023-03-14T13:25:29;12.80;99.90
3466;DHT22;1747;48.884;9.160;2023-03-14T13:27:56;12.40;99.90
3466;DHT22;1747;48.884;9.160;2023-03-14T13:30:25;12.10;99.90
3466;DHT22;1747;48.884;9.160;2023-03-14T13:32:55;12.00;99.90
3466;DHT22;1747;48.884;9.160;2023-03-14T13:35:25;11.90;99.90
3466;DHT22;1747;48.884;9.160;2023-03-14T13:37:55;12.00;99.90
3466;DHT22;1747;48.884;9.160;2023-03-14T13:40:26;11.90;98.90
3466;DHT22;1747;48.884;9.160;2023-03-14T13:43:06;12.00;99.50
3466;DHT22;1747;48.884;9.160;2023-03-14T13:45:49;12.00;97.40
3466;DHT22;1747;48.884;9.160;2023-03-14T13:48:18;11.80;97.30
3466;DHT22;1747;48.884;9.160;2023-03-14T13:50:50;11.70;97.80
3466;DHT22;1747;48.884;9.160;2023-03-14T13:53:18;11.60;96.60
3466;DHT22;1747;48.884;9.160;2023-03-14T13:55:45;11.50;97.70
3466;DHT22;1747;48.884;9.160;2023-03-14T13:58:24;11.40;97.10
3466;DHT22;1747;48.884;9.160;2023-03-14T14:01:13;11.30;97.80
3466;DHT22;1747;48.884;9.160;2023-03-14T14:03:44;11.10;97.40
3466;DHT22;1747;48.884;9.160;2023-03-14T14:06:23;10.90;97.90
3466;DHT22;1747;48.884;9.160;2023-03-14T14:08:50;10.70;97.10
3466;DHT22;1747;48.884;9.160;2023-03-14T14:11:31;10.60;97.20
3466;DHT22;1747;48.884;9.160;2023-03-14T14:14:00;10.40;96.20
3466;DHT22;1747;48.884;9.160;2023-03-14T14:16:29;10.40;95.60
3466;DHT22;1747;48.884;9.160;2023-03-14T14:18:59;10.30;96.40
3466;DHT22;1747;48.884;9.160;2023-03-14T14:21:27;10.30;95.40
3466;DHT22;1747;48.884;9.160;2023-03-14T14:23:54;10.30;96.00
3466;DHT22;1747;48.884;9.160;2023-03-14T14:26:21;10.30;96.50
3466;DHT22;1747;48.884;9.160;2023-03-14T14:28:58;10.30;95.90
3466;DHT22;1747;48.884;9.160;2023-03-14T14:31:25;10.30;95.70
3466;DHT22;1747;48.884;9.160;2023-03-14T14:34:01;10.30;95.20
3466;DHT22;1747;48.884;9.160;2023-03-14T14:36:30;10.30;96.20
3466;DHT22;1747;48.884;9.160;2023-03-14T14:38:59;10.30;95.60
3466;DHT22;1747;48.884;9.160;2023-03-14T14:41:29;10.40;95.70
3466;DHT22;1747;48.884;9.160;2023-03-14T14:43:58;10.30;95.80
3466;DHT22;1747;48.884;9.160;2023-03-14T14:46:28;10.30;96.50
3466;DHT22;1747;48.884;9.160;2023-03-14T14:48:57;10.30;96.40
3466;DHT22;1747;48.884;9.160;2023-03-14T14:51:32;10.40;95.80
3466;DHT22;1747;48.884;9.160;2023-03-14T14:54:03;10.40;96.50
3466;DHT22;1747;48.884;9.160;2023-03-14T14:56:35;10.50;96.40
3466;DHT22;1747;48.884;9.160;2023-03-14T14:59:04;10.50;96.30
3466;DHT22;1747;48.884;9.160;2023-03-14T15:01:34;10.70;96.10
3466;DHT22;1747;48.884;9.160;2023-03-14T15:04:04;11.00;95.80
3466;DHT22;1747;48.884;9.160;2023-03-14T15:06:39;11.60;94.90
3466;DHT22;1747;48.884;9.160;2023-03-14T15:09:09;12.20;94.10
3466;DHT22;1747;48.884;9.160;2023-03-14T15:11:36;12.70;94.60
3466;DHT22;1747;48.884;9.160;2023-03-14T15:14:04;13.20;93.00
3466;DHT22;1747;48.884;9.160;2023-03-14T15:16:32;13.60;91.70
3466;DHT22;1747;48.884;9.160;2023-03-14T15:19:00;13.40;91.40
3466;DHT22;1747;48.884;9.160;2023-03-14T15:21:31;13.10;90.80
3466;DHT22;1747;48.884;9.160;2023-03-14T15:23:59;13.00;91.00
3466;DHT22;1747;48.884;9.160;2023-03-14T15:26:27;12.80;91.80
3466;DHT22;1747;48.884;9.160;2023-03-14T15:28:54;12.70;91.20
3466;DHT22;1747;48.884;9.160;2023-03-14T15:31:21;12.40;91.60
3466;DHT22;1747;48.884;9.160;2023-03-14T15:33:48;12.50;90.90
3466;DHT22;1747;48.884;9.160;2023-03-14T15:36:22;12.60;91.50
3466;DHT22;1747;48.884;9.160;2023-03-14T15:38:49;12.50;91.00
3466;DHT22;1747;48.884;9.160;2023-03-14T15:41:18;12.00;91.40
3466;DHT22;1747;48.884;9.160;2023-03-14T15:43:46;11.70;92.10
3466;DHT22;1747;48.884;9.160;2023-03-14T15:46:13;11.60;92.40
3466;DHT22;1747;48.884;9.160;2023-03-14T15:48:42;11.30;92.60
3466;DHT22;1747;48.884;9.160;2023-03-14T15:51:09;11.10;93.20
3466;DHT22;1747;48.884;9.160;2023-03-14T15:53:36;10.90;93.50
3466;DHT22;1747;48.884;9.160;2023-03-14T15:56:04;10.90;93.20
3466;DHT22;1747;48.884;9.160;2023-03-14T15:58:32;10.80;93.50
3466;DHT22;1747;48.884;9.160;2023-03-14T16:01:01;10.80;93.70
3466;DHT22;1747;48.884;9.160;2023-03-14T16:03:28;11.00;94.30
3466;DHT22;1747;48.884;9.160;2023-03-14T16:05:55;11.20;94.10
3466;DHT22;1747;48.884;9.160;2023-03-14T16:08:23;11.60;93.80
3466;DHT22;1747;48.884;9.160;2023-03-14T16:10:51;12.00;93.50
3466;DHT22;1747;48.884;9.160;2023-03-14T16:13:18;12.10;93.30
3466;DHT22;1747;48.884;9.160;2023-03-14T16:15:57;12.10;93.60
3466;DHT22;1747;48.884;9.160;2023-03-14T16:18:27;12.00;93.90
3466;DHT22;1747;48.884;9.160;2023-03-14T16:20:56;11.60;94.30
3466;DHT22;1747;48.884;9.160;2023-03-14T16:23:23;11.20;94.70
3466;DHT22;1747;48.884;9.160;2023-03-14T16:25:51;11.10;94.00
3466;DHT22;1747;48.884;9.160;2023-03-14T16:28:18;10.90;95.20